Terminal Aerodrome Forecast
Issued by NWS Pueblo, CO

Home | Current Version | Previous Version | Text Only | Print | Product List | Glossary On
Versions: 1 2 3 4 5 6 7 8 9 10 11 12 13 14 15 16 17 18 19 20 21 22 23 24 25 26 27 28 29 30
000
FTUS45 KPUB 181720
TAFALS
TAF
KALS 181720Z 1818/1918 25005KT P6SM OVC021
     FM182000 21005KT P6SM FEW070 SCT150
     FM190100 VRB04KT P6SM SCT040 BKN100
     FM190800 VRB04KT 3SM BR BKN010=

USA.gov is the U.S. government's official web portal to all federal, state and local government web resources and services.